LFKB 221130Z AUTO 09005KT 040V140 CAVOK 16/10 Q1032 NOSIG

ElémentsDécodage
LFKB Station météo située sur l'aérodrome de BASTIA Poretta
221130Z émis le 22 du mois à 11h30 UTC
AUTO Bulletin édité par un automate
09005KT vent du 090°, 05 noeuds
040V140 vent de direction variable entre 040° et 140°
CAVOK Ceiling And Visibility OK
- Visibilité de 10 Km ou plus
- Pas de nuage au-dessous de 1500m ou au-dessous de l'altitude minimale du secteur la plus élevée (si>1500m) et absence de CB
- pas de temps présent significatif
16/10 température 16°C, point de rosée 10°C
 soit une humidité relative de 68%
Q1032 la pression au niveau de la mer (QNH) est de 1032 hPa
NOSIG Pas de changement significatif prévu au cours des deux heures suivant l'heure de l'observation